sensor_id;sensor_type;location;lat;lon;timestamp;P1;durP1;ratioP1;P2;durP2;ratioP2
63259;SDS011;49390;51.380;0.098;2023-12-14T00:00:00;7.25;;;3.13;;
63259;SDS011;49390;51.380;0.098;2023-12-14T00:02:32;8.20;;;3.70;;
63259;SDS011;49390;51.380;0.098;2023-12-14T00:05:00;8.75;;;3.85;;
63259;SDS011;49390;51.380;0.098;2023-12-14T00:07:28;8.52;;;3.25;;
63259;SDS011;49390;51.380;0.098;2023-12-14T00:09:55;8.25;;;3.60;;
63259;SDS011;49390;51.380;0.098;2023-12-14T00:12:23;9.55;;;3.50;;
63259;SDS011;49390;51.380;0.098;2023-12-14T00:14:51;6.55;;;3.30;;
63259;SDS011;49390;51.380;0.098;2023-12-14T00:17:19;7.55;;;3.55;;
63259;SDS011;49390;51.380;0.098;2023-12-14T00:19:47;6.88;;;3.30;;
63259;SDS011;49390;51.380;0.098;2023-12-14T00:22:14;7.78;;;3.67;;
63259;SDS011;49390;51.380;0.098;2023-12-14T00:24:42;8.85;;;3.45;;
63259;SDS011;49390;51.380;0.098;2023-12-14T00:27:10;6.95;;;3.30;;
63259;SDS011;49390;51.380;0.098;2023-12-14T00:29:38;8.55;;;3.50;;
63259;SDS011;49390;51.380;0.098;2023-12-14T00:32:05;7.70;;;3.40;;
63259;SDS011;49390;51.380;0.098;2023-12-14T00:34:33;8.20;;;3.45;;
63259;SDS011;49390;51.380;0.098;2023-12-14T00:37:01;10.15;;;3.85;;
63259;SDS011;49390;51.380;0.098;2023-12-14T00:39:29;7.88;;;3.40;;
63259;SDS011;49390;51.380;0.098;2023-12-14T00:41:57;7.53;;;3.33;;
63259;SDS011;49390;51.380;0.098;2023-12-14T00:44:25;9.13;;;3.03;;
63259;SDS011;49390;51.380;0.098;2023-12-14T00:46:53;11.57;;;3.17;;
63259;SDS011;49390;51.380;0.098;2023-12-14T00:49:21;7.68;;;3.00;;
63259;SDS011;49390;51.380;0.098;2023-12-14T00:51:48;7.85;;;3.20;;
63259;SDS011;49390;51.380;0.098;2023-12-14T00:54:16;6.53;;;3.03;;
63259;SDS011;49390;51.380;0.098;2023-12-14T00:56:44;8.48;;;3.20;;
63259;SDS011;49390;51.380;0.098;2023-12-14T00:59:12;9.27;;;2.95;;
63259;SDS011;49390;51.380;0.098;2023-12-14T01:01:40;6.43;;;3.20;;
63259;SDS011;49390;51.380;0.098;2023-12-14T01:04:08;9.77;;;3.40;;
63259;SDS011;49390;51.380;0.098;2023-12-14T01:06:35;7.30;;;2.70;;
63259;SDS011;49390;51.380;0.098;2023-12-14T01:09:03;8.88;;;3.58;;
63259;SDS011;49390;51.380;0.098;2023-12-14T01:11:31;8.07;;;3.33;;
63259;SDS011;49390;51.380;0.098;2023-12-14T01:13:58;6.75;;;3.38;;
63259;SDS011;49390;51.380;0.098;2023-12-14T01:16:26;9.13;;;3.15;;
63259;SDS011;49390;51.380;0.098;2023-12-14T01:18:54;7.60;;;3.30;;
63259;SDS011;49390;51.380;0.098;2023-12-14T01:21:22;9.32;;;3.17;;
63259;SDS011;49390;51.380;0.098;2023-12-14T01:23:50;7.20;;;3.13;;
63259;SDS011;49390;51.380;0.098;2023-12-14T01:26:19;7.40;;;3.10;;
63259;SDS011;49390;51.380;0.098;2023-12-14T01:28:47;6.32;;;3.17;;
63259;SDS011;49390;51.380;0.098;2023-12-14T01:31:14;9.38;;;3.53;;
63259;SDS011;49390;51.380;0.098;2023-12-14T01:33:42;8.68;;;3.35;;
63259;SDS011;49390;51.380;0.098;2023-12-14T01:36:10;7.28;;;3.25;;
63259;SDS011;49390;51.380;0.098;2023-12-14T01:38:38;9.82;;;3.25;;
63259;SDS011;49390;51.380;0.098;2023-12-14T01:41:06;6.07;;;3.20;;
63259;SDS011;49390;51.380;0.098;2023-12-14T01:43:34;5.30;;;3.03;;
63259;SDS011;49390;51.380;0.098;2023-12-14T01:46:02;6.97;;;3.60;;
63259;SDS011;49390;51.380;0.098;2023-12-14T01:48:30;9.25;;;3.58;;
63259;SDS011;49390;51.380;0.098;2023-12-14T01:50:57;8.10;;;3.60;;
63259;SDS011;49390;51.380;0.098;2023-12-14T01:53:26;7.20;;;2.97;;
63259;SDS011;49390;51.380;0.098;2023-12-14T01:55:53;8.20;;;3.38;;
63259;SDS011;49390;51.380;0.098;2023-12-14T01:58:21;6.78;;;3.00;;
63259;SDS011;49390;51.380;0.098;2023-12-14T02:03:46;8.40;;;3.30;;
63259;SDS011;49390;51.380;0.098;2023-12-14T02:06:15;5.72;;;2.83;;
63259;SDS011;49390;51.380;0.098;2023-12-14T02:08:43;11.13;;;3.85;;
63259;SDS011;49390;51.380;0.098;2023-12-14T02:11:11;7.13;;;3.70;;
63259;SDS011;49390;51.380;0.098;2023-12-14T02:13:39;7.50;;;3.10;;
63259;SDS011;49390;51.380;0.098;2023-12-14T02:16:07;9.07;;;3.38;;
63259;SDS011;49390;51.380;0.098;2023-12-14T02:18:36;11.50;;;3.22;;
63259;SDS011;49390;51.380;0.098;2023-12-14T02:21:06;9.07;;;3.05;;
63259;SDS011;49390;51.380;0.098;2023-12-14T02:23:33;5.93;;;3.38;;
63259;SDS011;49390;51.380;0.098;2023-12-14T02:26:01;7.75;;;3.10;;
63259;SDS011;49390;51.380;0.098;2023-12-14T02:28:29;9.07;;;3.42;;
63259;SDS011;49390;51.380;0.098;2023-12-14T02:30:57;5.70;;;2.95;;
63259;SDS011;49390;51.380;0.098;2023-12-14T02:33:25;8.05;;;3.30;;
63259;SDS011;49390;51.380;0.098;2023-12-14T02:35:52;7.97;;;3.15;;
63259;SDS011;49390;51.380;0.098;2023-12-14T02:38:20;9.90;;;3.38;;
63259;SDS011;49390;51.380;0.098;2023-12-14T02:40:48;8.93;;;3.30;;
63259;SDS011;49390;51.380;0.098;2023-12-14T02:43:20;6.70;;;3.03;;
63259;SDS011;49390;51.380;0.098;2023-12-14T02:45:47;10.38;;;3.28;;
63259;SDS011;49390;51.380;0.098;2023-12-14T02:48:15;6.93;;;2.90;;
63259;SDS011;49390;51.380;0.098;2023-12-14T02:50:43;9.20;;;3.15;;
63259;SDS011;49390;51.380;0.098;2023-12-14T02:53:11;8.02;;;3.67;;
63259;SDS011;49390;51.380;0.098;2023-12-14T02:55:39;8.90;;;2.90;;
63259;SDS011;49390;51.380;0.098;2023-12-14T02:58:07;7.10;;;2.92;;
63259;SDS011;49390;51.380;0.098;2023-12-14T03:00:35;6.53;;;3.10;;
63259;SDS011;49390;51.380;0.098;2023-12-14T03:03:03;6.13;;;2.90;;
63259;SDS011;49390;51.380;0.098;2023-12-14T03:05:31;8.68;;;3.22;;
63259;SDS011;49390;51.380;0.098;2023-12-14T03:07:59;6.85;;;3.20;;
63259;SDS011;49390;51.380;0.098;2023-12-14T03:10:26;6.93;;;2.70;;
63259;SDS011;49390;51.380;0.098;2023-12-14T03:12:54;7.53;;;2.88;;
63259;SDS011;49390;51.380;0.098;2023-12-14T03:15:22;7.35;;;3.35;;
63259;SDS011;49390;51.380;0.098;2023-12-14T03:17:50;9.07;;;3.30;;
63259;SDS011;49390;51.380;0.098;2023-12-14T03:20:18;6.28;;;2.97;;
63259;SDS011;49390;51.380;0.098;2023-12-14T03:22:46;9.10;;;3.08;;
63259;SDS011;49390;51.380;0.098;2023-12-14T03:25:13;10.70;;;3.40;;
63259;SDS011;49390;51.380;0.098;2023-12-14T03:27:41;7.55;;;2.80;;
63259;SDS011;49390;51.380;0.098;2023-12-14T03:30:09;8.57;;;3.08;;
63259;SDS011;49390;51.380;0.098;2023-12-14T03:32:38;6.38;;;2.80;;
63259;SDS011;49390;51.380;0.098;2023-12-14T03:35:06;7.20;;;2.85;;
63259;SDS011;49390;51.380;0.098;2023-12-14T03:37:35;8.80;;;2.95;;
63259;SDS011;49390;51.380;0.098;2023-12-14T03:40:03;6.35;;;3.13;;
63259;SDS011;49390;51.380;0.098;2023-12-14T03:42:33;8.88;;;3.10;;
63259;SDS011;49390;51.380;0.098;2023-12-14T03:45:02;6.50;;;3.00;;
63259;SDS011;49390;51.380;0.098;2023-12-14T03:47:31;8.00;;;3.17;;
63259;SDS011;49390;51.380;0.098;2023-12-14T03:49:59;9.68;;;3.33;;
63259;SDS011;49390;51.380;0.098;2023-12-14T03:52:27;6.60;;;2.95;;
63259;SDS011;49390;51.380;0.098;2023-12-14T03:57:26;8.05;;;3.17;;
63259;SDS011;49390;51.380;0.098;2023-12-14T03:59:54;9.88;;;3.88;;
63259;SDS011;49390;51.380;0.098;2023-12-14T04:02:22;6.97;;;2.92;;
63259;SDS011;49390;51.380;0.098;2023-12-14T04:04:49;11.20;;;3.53;;
63259;SDS011;49390;51.380;0.098;2023-12-14T04:07:17;8.57;;;3.25;;
63259;SDS011;49390;51.380;0.098;2023-12-14T04:09:45;7.85;;;3.67;;
63259;SDS011;49390;51.380;0.098;2023-12-14T04:12:13;11.13;;;3.50;;
63259;SDS011;49390;51.380;0.098;2023-12-14T04:14:41;7.30;;;3.30;;
63259;SDS011;49390;51.380;0.098;2023-12-14T04:17:09;7.35;;;3.13;;
63259;SDS011;49390;51.380;0.098;2023-12-14T04:19:38;8.02;;;3.10;;
63259;SDS011;49390;51.380;0.098;2023-12-14T04:22:06;6.43;;;2.97;;
63259;SDS011;49390;51.380;0.098;2023-12-14T04:24:34;6.82;;;3.22;;
63259;SDS011;49390;51.380;0.098;2023-12-14T04:27:02;9.32;;;3.53;;
63259;SDS011;49390;51.380;0.098;2023-12-14T04:29:29;10.50;;;3.95;;
63259;SDS011;49390;51.380;0.098;2023-12-14T04:31:57;9.82;;;3.75;;
63259;SDS011;49390;51.380;0.098;2023-12-14T04:34:25;9.65;;;3.15;;
63259;SDS011;49390;51.380;0.098;2023-12-14T04:36:53;6.70;;;3.30;;
63259;SDS011;49390;51.380;0.098;2023-12-14T04:39:24;9.90;;;3.65;;
63259;SDS011;49390;51.380;0.098;2023-12-14T04:41:52;9.77;;;3.45;;
63259;SDS011;49390;51.380;0.098;2023-12-14T04:44:21;7.97;;;3.10;;
63259;SDS011;49390;51.380;0.098;2023-12-14T04:46:49;8.75;;;3.53;;
63259;SDS011;49390;51.380;0.098;2023-12-14T04:49:18;8.38;;;3.60;;
63259;SDS011;49390;51.380;0.098;2023-12-14T04:51:47;10.07;;;3.65;;
63259;SDS011;49390;51.380;0.098;2023-12-14T04:54:14;9.13;;;3.78;;
63259;SDS011;49390;51.380;0.098;2023-12-14T04:56:45;9.18;;;3.15;;
63259;SDS011;49390;51.380;0.098;2023-12-14T04:59:13;8.48;;;3.28;;
63259;SDS011;49390;51.380;0.098;2023-12-14T05:01:41;8.57;;;3.10;;
63259;SDS011;49390;51.380;0.098;2023-12-14T05:04:08;8.43;;;3.03;;
63259;SDS011;49390;51.380;0.098;2023-12-14T05:06:37;8.32;;;3.78;;
63259;SDS011;49390;51.380;0.098;2023-12-14T05:09:05;10.23;;;4.13;;
63259;SDS011;49390;51.380;0.098;2023-12-14T05:11:34;9.25;;;3.83;;
63259;SDS011;49390;51.380;0.098;2023-12-14T05:14:01;8.52;;;3.85;;
63259;SDS011;49390;51.380;0.098;2023-12-14T05:16:30;7.68;;;3.08;;
63259;SDS011;49390;51.380;0.098;2023-12-14T05:18:58;13.38;;;4.35;;
63259;SDS011;49390;51.380;0.098;2023-12-14T05:21:26;9.63;;;4.00;;
63259;SDS011;49390;51.380;0.098;2023-12-14T05:23:54;6.88;;;3.53;;
63259;SDS011;49390;51.380;0.098;2023-12-14T05:26:22;11.05;;;4.28;;
63259;SDS011;49390;51.380;0.098;2023-12-14T05:28:49;9.05;;;3.88;;
63259;SDS011;49390;51.380;0.098;2023-12-14T05:31:17;11.93;;;4.25;;
63259;SDS011;49390;51.380;0.098;2023-12-14T05:33:45;9.02;;;4.07;;
63259;SDS011;49390;51.380;0.098;2023-12-14T05:36:13;6.93;;;3.45;;
63259;SDS011;49390;51.380;0.098;2023-12-14T05:38:41;7.18;;;3.83;;
63259;SDS011;49390;51.380;0.098;2023-12-14T05:41:09;9.82;;;4.20;;
63259;SDS011;49390;51.380;0.098;2023-12-14T05:43:37;7.75;;;3.85;;
63259;SDS011;49390;51.380;0.098;2023-12-14T05:46:05;9.10;;;4.30;;
63259;SDS011;49390;51.380;0.098;2023-12-14T05:48:33;7.72;;;3.90;;
63259;SDS011;49390;51.380;0.098;2023-12-14T05:51:01;11.68;;;3.97;;
63259;SDS011;49390;51.380;0.098;2023-12-14T05:53:28;10.48;;;3.70;;
63259;SDS011;49390;51.380;0.098;2023-12-14T05:55:56;9.48;;;3.85;;
63259;SDS011;49390;51.380;0.098;2023-12-14T05:58:24;9.38;;;3.65;;
63259;SDS011;49390;51.380;0.098;2023-12-14T06:00:52;10.05;;;3.53;;
63259;SDS011;49390;51.380;0.098;2023-12-14T06:03:20;7.45;;;3.58;;
63259;SDS011;49390;51.380;0.098;2023-12-14T06:05:48;7.30;;;3.95;;
63259;SDS011;49390;51.380;0.098;2023-12-14T06:08:16;8.70;;;3.83;;
63259;SDS011;49390;51.380;0.098;2023-12-14T06:10:43;6.50;;;3.30;;
63259;SDS011;49390;51.380;0.098;2023-12-14T06:13:11;8.55;;;3.75;;
63259;SDS011;49390;51.380;0.098;2023-12-14T06:15:39;9.85;;;3.83;;
63259;SDS011;49390;51.380;0.098;2023-12-14T06:18:07;9.50;;;3.53;;
63259;SDS011;49390;51.380;0.098;2023-12-14T06:20:35;8.07;;;3.28;;
63259;SDS011;49390;51.380;0.098;2023-12-14T06:23:02;8.32;;;4.00;;
63259;SDS011;49390;51.380;0.098;2023-12-14T06:25:30;9.93;;;3.58;;
63259;SDS011;49390;51.380;0.098;2023-12-14T06:27:58;12.70;;;4.20;;
63259;SDS011;49390;51.380;0.098;2023-12-14T06:30:26;8.82;;;4.00;;
63259;SDS011;49390;51.380;0.098;2023-12-14T06:32:53;13.35;;;4.60;;
63259;SDS011;49390;51.380;0.098;2023-12-14T06:35:21;8.80;;;3.83;;
63259;SDS011;49390;51.380;0.098;2023-12-14T06:37:49;8.77;;;4.13;;
63259;SDS011;49390;51.380;0.098;2023-12-14T06:40:17;10.80;;;4.40;;
63259;SDS011;49390;51.380;0.098;2023-12-14T06:42:45;12.40;;;4.00;;
63259;SDS011;49390;51.380;0.098;2023-12-14T06:45:13;12.10;;;5.18;;
63259;SDS011;49390;51.380;0.098;2023-12-14T06:47:41;12.30;;;4.35;;
63259;SDS011;49390;51.380;0.098;2023-12-14T06:50:10;10.63;;;4.05;;
63259;SDS011;49390;51.380;0.098;2023-12-14T06:52:38;9.75;;;3.92;;
63259;SDS011;49390;51.380;0.098;2023-12-14T06:55:06;12.63;;;4.60;;
63259;SDS011;49390;51.380;0.098;2023-12-14T06:57:34;10.90;;;3.92;;
63259;SDS011;49390;51.380;0.098;2023-12-14T07:00:02;9.38;;;4.53;;
63259;SDS011;49390;51.380;0.098;2023-12-14T07:02:30;10.65;;;4.38;;
63259;SDS011;49390;51.380;0.098;2023-12-14T07:04:59;11.82;;;3.90;;
63259;SDS011;49390;51.380;0.098;2023-12-14T07:07:27;10.35;;;4.07;;
63259;SDS011;49390;51.380;0.098;2023-12-14T07:09:55;8.77;;;3.80;;
63259;SDS011;49390;51.380;0.098;2023-12-14T07:12:22;9.20;;;3.92;;
63259;SDS011;49390;51.380;0.098;2023-12-14T07:14:50;8.90;;;4.22;;
63259;SDS011;49390;51.380;0.098;2023-12-14T07:17:18;11.27;;;3.63;;
63259;SDS011;49390;51.380;0.098;2023-12-14T07:19:46;9.00;;;4.00;;
63259;SDS011;49390;51.380;0.098;2023-12-14T07:22:14;10.40;;;3.97;;
63259;SDS011;49390;51.380;0.098;2023-12-14T07:24:42;7.75;;;3.60;;
63259;SDS011;49390;51.380;0.098;2023-12-14T07:27:19;10.07;;;3.65;;
63259;SDS011;49390;51.380;0.098;2023-12-14T07:29:46;10.68;;;3.30;;
63259;SDS011;49390;51.380;0.098;2023-12-14T07:32:14;10.80;;;4.03;;
63259;SDS011;49390;51.380;0.098;2023-12-14T07:34:42;7.93;;;3.72;;
63259;SDS011;49390;51.380;0.098;2023-12-14T07:37:11;9.10;;;3.50;;
63259;SDS011;49390;51.380;0.098;2023-12-14T07:39:39;8.88;;;4.00;;
63259;SDS011;49390;51.380;0.098;2023-12-14T07:42:07;10.77;;;3.70;;
63259;SDS011;49390;51.380;0.098;2023-12-14T07:44:34;12.38;;;3.67;;
63259;SDS011;49390;51.380;0.098;2023-12-14T07:47:02;7.93;;;3.50;;
63259;SDS011;49390;51.380;0.098;2023-12-14T07:49:30;9.93;;;2.97;;
63259;SDS011;49390;51.380;0.098;2023-12-14T07:51:58;9.95;;;3.67;;
63259;SDS011;49390;51.380;0.098;2023-12-14T07:54:26;9.02;;;3.63;;
63259;SDS011;49390;51.380;0.098;2023-12-14T07:57:07;6.90;;;3.65;;
63259;SDS011;49390;51.380;0.098;2023-12-14T07:59:35;9.90;;;4.45;;
63259;SDS011;49390;51.380;0.098;2023-12-14T08:02:02;8.52;;;3.60;;
63259;SDS011;49390;51.380;0.098;2023-12-14T08:04:30;9.20;;;3.30;;
63259;SDS011;49390;51.380;0.098;2023-12-14T08:07:00;5.50;;;3.10;;
63259;SDS011;49390;51.380;0.098;2023-12-14T08:09:28;10.70;;;4.05;;
63259;SDS011;49390;51.380;0.098;2023-12-14T08:11:56;11.93;;;3.65;;
63259;SDS011;49390;51.380;0.098;2023-12-14T08:14:23;7.25;;;3.40;;
63259;SDS011;49390;51.380;0.098;2023-12-14T08:16:51;7.78;;;3.30;;
63259;SDS011;49390;51.380;0.098;2023-12-14T08:19:19;12.07;;;4.30;;
63259;SDS011;49390;51.380;0.098;2023-12-14T08:21:47;9.13;;;3.55;;
63259;SDS011;49390;51.380;0.098;2023-12-14T08:24:15;7.72;;;3.50;;
63259;SDS011;49390;51.380;0.098;2023-12-14T08:26:43;8.57;;;3.60;;
63259;SDS011;49390;51.380;0.098;2023-12-14T08:29:11;8.75;;;3.58;;
63259;SDS011;49390;51.380;0.098;2023-12-14T08:31:39;8.35;;;3.45;;
63259;SDS011;49390;51.380;0.098;2023-12-14T08:34:07;7.28;;;3.50;;
63259;SDS011;49390;51.380;0.098;2023-12-14T08:36:35;7.13;;;3.55;;
63259;SDS011;49390;51.380;0.098;2023-12-14T08:39:03;9.15;;;3.80;;
63259;SDS011;49390;51.380;0.098;2023-12-14T08:41:30;7.93;;;3.20;;
63259;SDS011;49390;51.380;0.098;2023-12-14T08:43:58;8.15;;;3.80;;
63259;SDS011;49390;51.380;0.098;2023-12-14T08:46:26;9.45;;;3.92;;
63259;SDS011;49390;51.380;0.098;2023-12-14T08:48:54;9.45;;;3.83;;
63259;SDS011;49390;51.380;0.098;2023-12-14T08:51:22;8.52;;;4.18;;
63259;SDS011;49390;51.380;0.098;2023-12-14T08:53:51;10.57;;;4.75;;
63259;SDS011;49390;51.380;0.098;2023-12-14T08:56:19;7.47;;;3.50;;
63259;SDS011;49390;51.380;0.098;2023-12-14T08:58:47;9.02;;;3.50;;
63259;SDS011;49390;51.380;0.098;2023-12-14T09:01:19;7.18;;;3.25;;
63259;SDS011;49390;51.380;0.098;2023-12-14T09:03:51;7.82;;;3.38;;
63259;SDS011;49390;51.380;0.098;2023-12-14T09:06:19;8.85;;;3.45;;
63259;SDS011;49390;51.380;0.098;2023-12-14T09:08:48;8.55;;;3.33;;
63259;SDS011;49390;51.380;0.098;2023-12-14T09:11:16;11.82;;;3.33;;
63259;SDS011;49390;51.380;0.098;2023-12-14T09:13:44;9.90;;;3.58;;
63259;SDS011;49390;51.380;0.098;2023-12-14T09:16:12;8.15;;;3.80;;
63259;SDS011;49390;51.380;0.098;2023-12-14T09:18:40;7.10;;;3.25;;
63259;SDS011;49390;51.380;0.098;2023-12-14T09:21:07;6.40;;;3.30;;
63259;SDS011;49390;51.380;0.098;2023-12-14T09:23:35;11.60;;;3.60;;
63259;SDS011;49390;51.380;0.098;2023-12-14T09:26:03;8.18;;;3.22;;
63259;SDS011;49390;51.380;0.098;2023-12-14T09:28:31;8.38;;;3.30;;
63259;SDS011;49390;51.380;0.098;2023-12-14T09:30:59;7.45;;;3.63;;
63259;SDS011;49390;51.380;0.098;2023-12-14T09:33:27;8.07;;;3.20;;
63259;SDS011;49390;51.380;0.098;2023-12-14T09:35:55;7.97;;;2.95;;
63259;SDS011;49390;51.380;0.098;2023-12-14T09:38:23;8.85;;;3.00;;
63259;SDS011;49390;51.380;0.098;2023-12-14T09:40:51;7.10;;;2.95;;
63259;SDS011;49390;51.380;0.098;2023-12-14T09:43:19;10.70;;;3.22;;
63259;SDS011;49390;51.380;0.098;2023-12-14T09:45:47;9.98;;;3.83;;
63259;SDS011;49390;51.380;0.098;2023-12-14T09:48:16;7.07;;;3.30;;
63259;SDS011;49390;51.380;0.098;2023-12-14T09:50:44;9.55;;;3.80;;
63259;SDS011;49390;51.380;0.098;2023-12-14T09:53:13;6.63;;;3.22;;
63259;SDS011;49390;51.380;0.098;2023-12-14T09:55:41;8.55;;;3.88;;
63259;SDS011;49390;51.380;0.098;2023-12-14T09:58:09;6.90;;;2.92;;
63259;SDS011;49390;51.380;0.098;2023-12-14T10:00:38;9.93;;;4.15;;
63259;SDS011;49390;51.380;0.098;2023-12-14T10:03:26;6.00;;;2.90;;
63259;SDS011;49390;51.380;0.098;2023-12-14T10:05:56;7.45;;;2.55;;
63259;SDS011;49390;51.380;0.098;2023-12-14T10:08:26;9.70;;;3.38;;
63259;SDS011;49390;51.380;0.098;2023-12-14T10:10:54;6.25;;;2.75;;
63259;SDS011;49390;51.380;0.098;2023-12-14T10:13:36;7.82;;;2.90;;
63259;SDS011;49390;51.380;0.098;2023-12-14T10:16:05;6.90;;;3.35;;
63259;SDS011;49390;51.380;0.098;2023-12-14T10:18:33;7.25;;;3.22;;
63259;SDS011;49390;51.380;0.098;2023-12-14T10:21:02;8.93;;;2.80;;
63259;SDS011;49390;51.380;0.098;2023-12-14T10:23:30;5.22;;;2.50;;
63259;SDS011;49390;51.380;0.098;2023-12-14T10:25:57;4.72;;;2.60;;
63259;SDS011;49390;51.380;0.098;2023-12-14T10:28:26;4.75;;;2.25;;
63259;SDS011;49390;51.380;0.098;2023-12-14T10:30:54;3.17;;;1.88;;
63259;SDS011;49390;51.380;0.098;2023-12-14T10:33:22;3.88;;;1.95;;
63259;SDS011;49390;51.380;0.098;2023-12-14T10:35:50;6.80;;;2.75;;
63259;SDS011;49390;51.380;0.098;2023-12-14T10:38:19;4.60;;;2.10;;
63259;SDS011;49390;51.380;0.098;2023-12-14T10:40:47;4.55;;;2.20;;
63259;SDS011;49390;51.380;0.098;2023-12-14T10:43:15;4.68;;;2.00;;
63259;SDS011;49390;51.380;0.098;2023-12-14T10:46:06;6.03;;;2.10;;
63259;SDS011;49390;51.380;0.098;2023-12-14T10:48:37;5.13;;;2.20;;
63259;SDS011;49390;51.380;0.098;2023-12-14T10:53:37;5.25;;;2.50;;
63259;SDS011;49390;51.380;0.098;2023-12-14T10:56:05;7.13;;;2.30;;
63259;SDS011;49390;51.380;0.098;2023-12-14T10:58:44;3.45;;;1.80;;
63259;SDS011;49390;51.380;0.098;2023-12-14T11:01:14;3.45;;;1.77;;
63259;SDS011;49390;51.380;0.098;2023-12-14T11:03:44;4.47;;;2.08;;
63259;SDS011;49390;51.380;0.098;2023-12-14T11:08:52;6.28;;;2.13;;
63259;SDS011;49390;51.380;0.098;2023-12-14T11:11:27;4.95;;;1.95;;
63259;SDS011;49390;51.380;0.098;2023-12-14T11:13:55;6.57;;;2.05;;
63259;SDS011;49390;51.380;0.098;2023-12-14T11:16:25;5.85;;;2.25;;
63259;SDS011;49390;51.380;0.098;2023-12-14T11:21:48;6.40;;;2.50;;
63259;SDS011;49390;51.380;0.098;2023-12-14T11:24:36;5.93;;;2.15;;
63259;SDS011;49390;51.380;0.098;2023-12-14T11:27:04;6.03;;;2.42;;
63259;SDS011;49390;51.380;0.098;2023-12-14T11:29:35;6.00;;;2.40;;
63259;SDS011;49390;51.380;0.098;2023-12-14T11:32:07;5.53;;;2.30;;
63259;SDS011;49390;51.380;0.098;2023-12-14T11:34:35;4.40;;;2.30;;
63259;SDS011;49390;51.380;0.098;2023-12-14T11:37:02;6.70;;;2.30;;
63259;SDS011;49390;51.380;0.098;2023-12-14T11:39:31;7.85;;;2.70;;
63259;SDS011;49390;51.380;0.098;2023-12-14T11:42:02;5.47;;;2.53;;
63259;SDS011;49390;51.380;0.098;2023-12-14T11:44:31;5.30;;;2.50;;
63259;SDS011;49390;51.380;0.098;2023-12-14T11:46:59;5.85;;;2.40;;
63259;SDS011;49390;51.380;0.098;2023-12-14T11:49:27;7.43;;;3.20;;
63259;SDS011;49390;51.380;0.098;2023-12-14T11:51:55;6.25;;;2.78;;
63259;SDS011;49390;51.380;0.098;2023-12-14T11:54:23;6.00;;;2.53;;
63259;SDS011;49390;51.380;0.098;2023-12-14T11:56:50;7.35;;;2.78;;
63259;SDS011;49390;51.380;0.098;2023-12-14T11:59:18;7.50;;;3.00;;
63259;SDS011;49390;51.380;0.098;2023-12-14T12:01:57;6.95;;;3.00;;
63259;SDS011;49390;51.380;0.098;2023-12-14T12:04:27;7.18;;;3.92;;
63259;SDS011;49390;51.380;0.098;2023-12-14T12:07:02;5.60;;;2.78;;
63259;SDS011;49390;51.380;0.098;2023-12-14T12:09:39;7.43;;;2.90;;
63259;SDS011;49390;51.380;0.098;2023-12-14T12:12:09;5.40;;;2.63;;
63259;SDS011;49390;51.380;0.098;2023-12-14T12:14:41;8.45;;;3.00;;
63259;SDS011;49390;51.380;0.098;2023-12-14T12:17:09;9.77;;;3.47;;
63259;SDS011;49390;51.380;0.098;2023-12-14T12:19:37;7.95;;;3.40;;
63259;SDS011;49390;51.380;0.098;2023-12-14T12:22:05;7.13;;;2.97;;
63259;SDS011;49390;51.380;0.098;2023-12-14T12:24:33;7.85;;;2.72;;
63259;SDS011;49390;51.380;0.098;2023-12-14T12:27:01;7.35;;;2.90;;
63259;SDS011;49390;51.380;0.098;2023-12-14T12:29:30;6.00;;;2.63;;
63259;SDS011;49390;51.380;0.098;2023-12-14T12:31:57;7.40;;;2.97;;
63259;SDS011;49390;51.380;0.098;2023-12-14T12:34:26;8.55;;;2.83;;
63259;SDS011;49390;51.380;0.098;2023-12-14T12:36:54;7.05;;;2.83;;
63259;SDS011;49390;51.380;0.098;2023-12-14T12:39:22;6.30;;;3.47;;
63259;SDS011;49390;51.380;0.098;2023-12-14T12:41:50;7.40;;;3.00;;
63259;SDS011;49390;51.380;0.098;2023-12-14T12:44:18;10.43;;;3.00;;
63259;SDS011;49390;51.380;0.098;2023-12-14T12:46:46;8.18;;;3.22;;
63259;SDS011;49390;51.380;0.098;2023-12-14T12:49:28;9.18;;;3.42;;
63259;SDS011;49390;51.380;0.098;2023-12-14T12:51:56;6.07;;;3.20;;
63259;SDS011;49390;51.380;0.098;2023-12-14T12:54:24;8.40;;;3.05;;
63259;SDS011;49390;51.380;0.098;2023-12-14T12:56:51;7.50;;;3.22;;
63259;SDS011;49390;51.380;0.098;2023-12-14T12:59:19;8.30;;;3.30;;
63259;SDS011;49390;51.380;0.098;2023-12-14T13:01:47;6.72;;;3.55;;
63259;SDS011;49390;51.380;0.098;2023-12-14T13:04:21;7.40;;;2.75;;
63259;SDS011;49390;51.380;0.098;2023-12-14T13:06:49;6.40;;;2.97;;
63259;SDS011;49390;51.380;0.098;2023-12-14T13:09:18;9.68;;;2.95;;
63259;SDS011;49390;51.380;0.098;2023-12-14T13:11:47;7.63;;;3.33;;
63259;SDS011;49390;51.380;0.098;2023-12-14T13:14:15;7.10;;;2.92;;
63259;SDS011;49390;51.380;0.098;2023-12-14T13:16:43;7.43;;;2.70;;
63259;SDS011;49390;51.380;0.098;2023-12-14T13:19:11;5.85;;;2.92;;
63259;SDS011;49390;51.380;0.098;2023-12-14T13:21:39;7.78;;;3.03;;
63259;SDS011;49390;51.380;0.098;2023-12-14T13:24:06;11.27;;;4.18;;
63259;SDS011;49390;51.380;0.098;2023-12-14T13:26:34;7.80;;;3.40;;
63259;SDS011;49390;51.380;0.098;2023-12-14T13:29:03;7.00;;;3.25;;
63259;SDS011;49390;51.380;0.098;2023-12-14T13:31:31;7.30;;;3.10;;
63259;SDS011;49390;51.380;0.098;2023-12-14T13:33:58;7.10;;;3.22;;
63259;SDS011;49390;51.380;0.098;2023-12-14T13:36:26;6.35;;;3.00;;
63259;SDS011;49390;51.380;0.098;2023-12-14T13:38:54;7.05;;;3.17;;
63259;SDS011;49390;51.380;0.098;2023-12-14T13:41:24;7.60;;;3.10;;
63259;SDS011;49390;51.380;0.098;2023-12-14T13:43:52;6.63;;;2.95;;
63259;SDS011;49390;51.380;0.098;2023-12-14T13:46:19;7.03;;;3.25;;
63259;SDS011;49390;51.380;0.098;2023-12-14T13:51:20;8.00;;;3.10;;
63259;SDS011;49390;51.380;0.098;2023-12-14T13:53:48;8.52;;;2.95;;
63259;SDS011;49390;51.380;0.098;2023-12-14T13:56:18;6.70;;;3.20;;
63259;SDS011;49390;51.380;0.098;2023-12-14T13:58:47;7.80;;;3.50;;
63259;SDS011;49390;51.380;0.098;2023-12-14T14:01:15;5.68;;;3.22;;
63259;SDS011;49390;51.380;0.098;2023-12-14T14:03:44;10.82;;;3.70;;
63259;SDS011;49390;51.380;0.098;2023-12-14T14:06:14;6.47;;;3.50;;
63259;SDS011;49390;51.380;0.098;2023-12-14T14:08:42;8.07;;;3.58;;
63259;SDS011;49390;51.380;0.098;2023-12-14T14:11:10;6.63;;;3.30;;
63259;SDS011;49390;51.380;0.098;2023-12-14T14:13:40;5.85;;;3.28;;
63259;SDS011;49390;51.380;0.098;2023-12-14T14:16:08;9.65;;;3.60;;
63259;SDS011;49390;51.380;0.098;2023-12-14T14:18:36;7.63;;;3.72;;
63259;SDS011;49390;51.380;0.098;2023-12-14T14:21:04;6.45;;;3.72;;
63259;SDS011;49390;51.380;0.098;2023-12-14T14:23:35;8.02;;;4.32;;
63259;SDS011;49390;51.380;0.098;2023-12-14T14:26:02;8.70;;;3.88;;
63259;SDS011;49390;51.380;0.098;2023-12-14T14:28:30;9.30;;;4.05;;
63259;SDS011;49390;51.380;0.098;2023-12-14T14:30:58;9.73;;;4.32;;
63259;SDS011;49390;51.380;0.098;2023-12-14T14:33:27;9.40;;;3.92;;
63259;SDS011;49390;51.380;0.098;2023-12-14T14:35:55;8.20;;;4.07;;
63259;SDS011;49390;51.380;0.098;2023-12-14T14:38:23;8.13;;;4.22;;
63259;SDS011;49390;51.380;0.098;2023-12-14T14:40:50;6.72;;;4.00;;
63259;SDS011;49390;51.380;0.098;2023-12-14T14:43:19;11.00;;;4.50;;
63259;SDS011;49390;51.380;0.098;2023-12-14T14:45:48;9.65;;;4.30;;
63259;SDS011;49390;51.380;0.098;2023-12-14T14:48:16;7.60;;;4.70;;
63259;SDS011;49390;51.380;0.098;2023-12-14T14:50:45;6.78;;;3.85;;
63259;SDS011;49390;51.380;0.098;2023-12-14T14:53:13;8.68;;;4.18;;
63259;SDS011;49390;51.380;0.098;2023-12-14T14:55:41;7.75;;;4.22;;
63259;SDS011;49390;51.380;0.098;2023-12-14T14:58:09;9.85;;;4.47;;
63259;SDS011;49390;51.380;0.098;2023-12-14T15:00:37;8.48;;;4.65;;
63259;SDS011;49390;51.380;0.098;2023-12-14T15:03:06;8.85;;;4.80;;
63259;SDS011;49390;51.380;0.098;2023-12-14T15:05:36;9.60;;;4.78;;
63259;SDS011;49390;51.380;0.098;2023-12-14T15:08:04;8.27;;;4.60;;